createdAt,value
2023-04-19T00:00:52.134Z,6.60
2023-04-19T00:03:20.194Z,6.53
2023-04-19T00:05:48.177Z,6.03
2023-04-19T00:08:15.813Z,6.33
2023-04-19T00:10:43.463Z,6.27
2023-04-19T00:13:11.172Z,5.87
2023-04-19T00:15:40.359Z,5.33
2023-04-19T00:18:08.138Z,5.20
2023-04-19T00:20:36.286Z,5.50
2023-04-19T00:23:03.958Z,5.57
2023-04-19T00:25:32.050Z,5.37
2023-04-19T00:27:59.676Z,5.23
2023-04-19T00:30:27.321Z,5.47
2023-04-19T00:32:56.406Z,5.80
2023-04-19T00:35:24.135Z,5.17
2023-04-19T00:37:51.788Z,5.20
2023-04-19T00:40:19.532Z,5.40
2023-04-19T00:42:47.189Z,5.47
2023-04-19T00:45:15.464Z,5.30
2023-04-19T00:47:43.570Z,5.23
2023-04-19T00:50:14.184Z,4.87
2023-04-19T00:52:42.045Z,5.10
2023-04-19T00:55:09.872Z,4.70
2023-04-19T00:57:38.225Z,5.20
2023-04-19T01:00:08.196Z,4.80
2023-04-19T01:02:36.337Z,5.50
2023-04-19T01:05:04.715Z,5.23
2023-04-19T01:07:34.457Z,5.77
2023-04-19T01:10:02.199Z,5.20
2023-04-19T01:12:30.195Z,4.87
2023-04-19T01:14:57.814Z,5.00
2023-04-19T01:17:27.100Z,4.70
2023-04-19T01:20:00.470Z,5.07
2023-04-19T01:22:30.062Z,4.70
2023-04-19T01:24:58.578Z,4.13
2023-04-19T01:27:26.272Z,4.53
2023-04-19T01:29:53.988Z,4.47
2023-04-19T01:32:21.663Z,4.57
2023-04-19T01:34:50.291Z,4.83
2023-04-19T01:37:18.024Z,4.90
2023-04-19T01:39:47.047Z,5.30
2023-04-19T01:42:14.692Z,4.50
2023-04-19T01:44:42.404Z,4.17
2023-04-19T01:47:10.120Z,4.70
2023-04-19T01:49:38.277Z,4.63
2023-04-19T01:52:06.006Z,4.70
2023-04-19T01:54:33.656Z,4.57
2023-04-19T01:57:02.635Z,4.50
2023-04-19T01:59:30.241Z,4.43
2023-04-19T02:01:57.934Z,4.27
2023-04-19T02:04:25.692Z,4.87
2023-04-19T02:06:53.331Z,4.40
2023-04-19T02:09:21.004Z,4.43
2023-04-19T02:11:48.664Z,4.77
2023-04-19T02:14:17.796Z,4.07
2023-04-19T02:16:45.555Z,4.43
2023-04-19T02:19:14.037Z,4.50
2023-04-19T02:21:41.657Z,4.07
2023-04-19T02:24:09.466Z,4.47
2023-04-19T02:26:37.096Z,4.47
2023-04-19T02:29:06.369Z,4.03
2023-04-19T02:31:37.146Z,3.87
2023-04-19T02:34:04.846Z,4.53
2023-04-19T02:36:32.503Z,4.13
2023-04-19T02:39:00.320Z,4.27
2023-04-19T02:41:27.928Z,3.87
2023-04-19T02:43:56.253Z,4.17
2023-04-19T02:46:23.917Z,3.90
2023-04-19T02:48:52.979Z,3.47
2023-04-19T02:51:20.633Z,4.07
2023-04-19T02:53:48.243Z,3.70
2023-04-19T02:56:16.431Z,4.00
2023-04-19T02:58:44.116Z,3.70
2023-04-19T03:01:11.822Z,4.10
2023-04-19T03:03:39.533Z,3.90
2023-04-19T03:06:09.361Z,3.97
2023-04-19T03:08:37.394Z,4.40
2023-04-19T03:11:05.123Z,3.93
2023-04-19T03:13:32.748Z,4.60
2023-04-19T03:16:00.511Z,4.10
2023-04-19T03:18:28.138Z,4.03
2023-04-19T03:20:55.786Z,3.77
2023-04-19T03:23:24.931Z,4.03
2023-04-19T03:25:52.588Z,4.57
2023-04-19T03:28:20.372Z,4.30
2023-04-19T03:30:48.173Z,4.33
2023-04-19T03:33:16.018Z,4.20
2023-04-19T03:35:44.767Z,4.33
2023-04-19T03:38:12.448Z,4.03
2023-04-19T03:40:41.424Z,4.80
2023-04-19T03:43:09.059Z,3.97
2023-04-19T03:45:36.667Z,4.27
2023-04-19T03:48:04.440Z,4.40
2023-04-19T03:50:33.823Z,4.27
2023-04-19T03:53:01.489Z,4.23
2023-04-19T03:55:29.228Z,3.80
2023-04-19T03:57:58.498Z,3.77
2023-04-19T04:00:27.379Z,3.97
2023-04-19T04:02:55.122Z,3.90
2023-04-19T04:05:23.119Z,3.80
2023-04-19T04:07:50.759Z,3.87
2023-04-19T04:10:18.532Z,3.60
2023-04-19T04:12:46.176Z,3.60
2023-04-19T04:15:15.219Z,4.00
2023-04-19T04:17:42.861Z,4.03
2023-04-19T04:20:13.285Z,3.67
2023-04-19T04:22:43.097Z,3.53
2023-04-19T04:25:11.184Z,3.87
2023-04-19T04:27:39.281Z,3.80
2023-04-19T04:30:08.277Z,3.80
2023-04-19T04:32:37.268Z,3.80
2023-04-19T04:35:06.195Z,3.53
2023-04-19T04:37:34.384Z,3.77
2023-04-19T04:40:02.311Z,3.70
2023-04-19T04:42:31.399Z,3.90
2023-04-19T04:45:01.522Z,3.60
2023-04-19T04:47:32.262Z,4.00
2023-04-19T04:50:02.377Z,3.90
2023-04-19T04:52:30.704Z,4.00
2023-04-19T04:54:58.377Z,3.70
2023-04-19T04:57:25.973Z,3.80
2023-04-19T04:59:53.581Z,3.97
2023-04-19T05:02:22.724Z,4.07
2023-04-19T05:04:50.518Z,4.10
2023-04-19T05:07:19.654Z,4.17
2023-04-19T05:09:47.253Z,3.87
2023-04-19T05:12:15.279Z,4.03
2023-04-19T05:14:42.879Z,4.13
2023-04-19T05:17:10.531Z,4.13
2023-04-19T05:19:38.190Z,3.47
2023-04-19T05:22:06.310Z,4.00
2023-04-19T05:24:35.267Z,3.30
2023-04-19T05:27:03.024Z,3.50
2023-04-19T05:29:30.695Z,3.30
2023-04-19T05:31:58.827Z,3.70
2023-04-19T05:34:26.531Z,3.03
2023-04-19T05:36:54.162Z,2.97
2023-04-19T05:39:21.834Z,2.83
2023-04-19T05:41:50.862Z,2.93
2023-04-19T05:44:18.553Z,3.17
2023-04-19T05:46:46.235Z,3.30
2023-04-19T05:49:13.885Z,3.13
2023-04-19T05:51:41.529Z,2.90
2023-04-19T05:54:12.492Z,2.70
2023-04-19T05:56:40.260Z,2.83
2023-04-19T05:59:11.436Z,2.70
2023-04-19T06:01:39.168Z,3.03
2023-04-19T06:04:07.028Z,2.70
2023-04-19T06:06:34.677Z,2.83
2023-04-19T06:09:02.376Z,2.53
2023-04-19T06:11:38.787Z,2.47
2023-04-19T06:14:07.054Z,2.43
2023-04-19T06:16:36.044Z,2.30
2023-04-19T06:19:03.828Z,2.70
2023-04-19T06:21:31.585Z,2.63
2023-04-19T06:23:59.425Z,2.50
2023-04-19T06:26:27.221Z,2.73
2023-04-19T06:28:54.924Z,2.47
2023-04-19T06:31:22.727Z,2.17
2023-04-19T06:33:51.822Z,2.40
2023-04-19T06:36:19.516Z,2.10
2023-04-19T06:38:47.246Z,1.73
2023-04-19T06:41:14.897Z,1.83
2023-04-19T06:43:42.885Z,1.73
2023-04-19T06:46:10.870Z,1.70
2023-04-19T06:48:39.190Z,1.80
2023-04-19T06:51:08.279Z,1.80
2023-04-19T06:53:36.694Z,1.90
2023-04-19T06:56:05.249Z,1.73
2023-04-19T06:58:35.205Z,1.87
2023-04-19T07:01:04.637Z,1.90
2023-04-19T07:03:32.949Z,2.00
2023-04-19T07:06:00.809Z,2.00
2023-04-19T07:08:42.440Z,2.00
2023-04-19T07:11:16.685Z,2.10
2023-04-19T07:13:44.303Z,1.90
2023-04-19T07:16:12.504Z,1.87
2023-04-19T07:18:40.233Z,2.07
2023-04-19T07:21:07.854Z,2.55
2023-04-19T07:23:36.961Z,2.05
2023-04-19T07:26:04.935Z,1.80
2023-04-19T07:28:32.679Z,1.70
2023-04-19T07:31:00.950Z,2.05
2023-04-19T07:33:28.974Z,2.20
2023-04-19T07:35:56.885Z,2.08
2023-04-19T07:38:24.822Z,1.40
2023-04-19T07:40:53.852Z,1.60
2023-04-19T07:43:21.536Z,1.70
2023-04-19T07:45:49.231Z,1.55
2023-04-19T07:48:16.941Z,1.77
2023-04-19T07:50:44.705Z,1.60
2023-04-19T07:53:12.354Z,1.73
2023-04-19T07:55:40.046Z,1.50
2023-04-19T07:58:09.357Z,1.60
2023-04-19T08:00:37.929Z,1.60
2023-04-19T08:03:05.814Z,1.58
2023-04-19T08:05:33.877Z,1.35
2023-04-19T08:08:01.540Z,1.50
2023-04-19T08:10:30.492Z,1.55
2023-04-19T08:13:06.000Z,1.75
2023-04-19T08:18:07.406Z,1.20
2023-04-19T08:20:35.340Z,1.70
2023-04-19T08:23:14.007Z,1.25
2023-04-19T08:25:49.061Z,1.35
2023-04-19T08:28:17.031Z,1.27
2023-04-19T08:30:46.048Z,1.73
2023-04-19T08:33:13.698Z,1.50
2023-04-19T08:35:42.083Z,1.45
2023-04-19T08:38:09.987Z,1.67
2023-04-19T08:40:42.667Z,1.67
2023-04-19T08:43:10.912Z,1.58
2023-04-19T08:45:39.269Z,1.40
2023-04-19T08:48:11.739Z,1.80
2023-04-19T08:50:56.009Z,1.80
2023-04-19T08:53:30.155Z,1.60
2023-04-19T08:58:41.365Z,1.80
2023-04-19T09:01:33.840Z,1.48
2023-04-19T09:04:26.036Z,1.80
2023-04-19T09:06:53.101Z,1.73
2023-04-19T09:11:53.508Z,1.58
2023-04-19T09:14:24.396Z,1.90
2023-04-19T09:16:53.024Z,1.70
2023-04-19T09:19:25.278Z,1.92
2023-04-19T09:21:54.843Z,1.73
2023-04-19T09:25:15.414Z,1.67
2023-04-19T09:27:29.180Z,2.40
2023-04-19T09:29:57.601Z,1.83
2023-04-19T09:32:25.900Z,1.83
2023-04-19T09:34:56.379Z,2.53
2023-04-19T09:39:55.405Z,2.57
2023-04-19T09:42:47.305Z,1.90
2023-04-19T09:45:29.392Z,2.23
2023-04-19T09:48:07.454Z,2.23
2023-04-19T09:50:50.537Z,2.53
2023-04-19T09:53:22.767Z,2.17
2023-04-19T09:56:00.215Z,2.30
2023-04-19T09:58:41.742Z,2.40
2023-04-19T10:01:18.373Z,2.30
2023-04-19T10:03:48.850Z,2.40
2023-04-19T10:08:51.467Z,2.50
2023-04-19T10:11:20.075Z,2.40
2023-04-19T10:13:49.925Z,2.47
2023-04-19T10:16:19.961Z,2.47
2023-04-19T10:18:49.872Z,2.40
2023-04-19T10:21:21.131Z,2.80
2023-04-19T10:23:49.585Z,3.07
2023-04-19T10:26:17.355Z,2.67
2023-04-19T10:28:45.011Z,2.33
2023-04-19T10:31:13.975Z,2.30
2023-04-19T10:33:42.622Z,2.30
2023-04-19T10:36:11.750Z,2.20
2023-04-19T10:38:43.393Z,2.90
2023-04-19T10:41:17.111Z,2.33
2023-04-19T10:43:48.317Z,2.57
2023-04-19T10:46:18.401Z,2.70
2023-04-19T10:48:54.533Z,2.60
2023-04-19T10:51:24.577Z,2.60
2023-04-19T10:53:55.997Z,2.47
2023-04-19T10:57:11.578Z,2.53
2023-04-19T10:59:40.364Z,2.90
2023-04-19T11:02:29.158Z,2.90
2023-04-19T11:05:02.210Z,2.50
2023-04-19T11:07:29.934Z,2.20
2023-04-19T11:09:58.953Z,2.90
2023-04-19T11:12:26.597Z,3.00
2023-04-19T11:14:57.423Z,3.07
2023-04-19T11:17:27.700Z,2.70
2023-04-19T11:19:56.841Z,3.13
2023-04-19T11:22:32.247Z,3.00
2023-04-19T11:25:08.216Z,2.77
2023-04-19T11:27:36.026Z,2.37
2023-04-19T11:30:05.678Z,2.70
2023-04-19T11:32:33.813Z,3.00
2023-04-19T11:35:07.684Z,2.93
2023-04-19T11:37:36.501Z,2.90
2023-04-19T11:40:06.372Z,2.97
2023-04-19T11:42:36.432Z,3.00
2023-04-19T11:45:05.208Z,2.90
2023-04-19T11:47:34.559Z,2.77
2023-04-19T11:50:36.094Z,2.50
2023-04-19T11:53:15.362Z,2.80
2023-04-19T11:55:47.579Z,2.43
2023-04-19T11:58:31.091Z,2.70
2023-04-19T12:01:04.053Z,2.90
2023-04-19T12:03:31.952Z,3.27
2023-04-19T12:06:03.353Z,2.80
2023-04-19T12:08:32.859Z,3.53
2023-04-19T12:11:01.093Z,2.90
2023-04-19T12:13:31.342Z,2.53
2023-04-19T12:15:59.679Z,3.00
2023-04-19T12:18:27.849Z,3.20
2023-04-19T12:20:55.618Z,3.10
2023-04-19T12:23:23.254Z,2.93
2023-04-19T12:25:51.078Z,3.03
2023-04-19T12:28:18.707Z,3.10
2023-04-19T12:30:47.658Z,2.93
2023-04-19T12:33:15.424Z,3.00
2023-04-19T12:35:44.898Z,3.50
2023-04-19T12:38:12.552Z,3.43
2023-04-19T12:40:40.190Z,2.90
2023-04-19T12:43:08.774Z,2.53
2023-04-19T12:45:36.435Z,3.00
2023-04-19T12:48:07.077Z,2.50
2023-04-19T12:50:34.842Z,2.70
2023-04-19T12:53:02.614Z,2.60
2023-04-19T12:55:30.257Z,2.60
2023-04-19T12:57:57.935Z,2.90
2023-04-19T13:00:25.919Z,2.73
2023-04-19T13:02:53.694Z,3.00
2023-04-19T13:05:23.102Z,2.30
2023-04-19T13:07:50.752Z,2.73
2023-04-19T13:10:18.560Z,2.80
2023-04-19T13:12:46.207Z,2.80
2023-04-19T13:15:13.842Z,2.50
2023-04-19T13:17:41.485Z,2.47
2023-04-19T13:20:10.532Z,2.93
2023-04-19T13:22:39.588Z,2.33
2023-04-19T13:25:08.527Z,2.60
2023-04-19T13:27:36.420Z,2.70
2023-04-19T13:30:04.269Z,3.07
2023-04-19T13:32:32.047Z,2.53
2023-04-19T13:34:59.686Z,2.80
2023-04-19T13:37:27.335Z,2.73
2023-04-19T13:40:07.063Z,2.60
2023-04-19T13:42:42.976Z,2.50
2023-04-19T13:45:11.321Z,3.33
2023-04-19T13:47:39.119Z,2.93
2023-04-19T13:50:08.252Z,2.40
2023-04-19T13:52:37.347Z,2.43
2023-04-19T13:55:06.861Z,3.73
2023-04-19T13:57:34.579Z,2.80
2023-04-19T14:00:02.625Z,2.93
2023-04-19T14:02:30.488Z,2.77
2023-04-19T14:04:59.610Z,2.70
2023-04-19T14:07:27.401Z,2.93
2023-04-19T14:09:55.738Z,2.73
2023-04-19T14:12:24.881Z,3.10
2023-04-19T14:14:52.488Z,3.37
2023-04-19T14:17:20.623Z,2.70
2023-04-19T14:19:48.248Z,2.90
2023-04-19T14:22:17.598Z,2.90
2023-04-19T14:24:46.203Z,3.00
2023-04-19T14:27:13.913Z,2.57
2023-04-19T14:29:42.850Z,2.27
2023-04-19T14:32:21.325Z,2.70
2023-04-19T14:34:51.734Z,3.00
2023-04-19T14:37:19.502Z,2.50
2023-04-19T14:39:47.509Z,2.33
2023-04-19T14:42:15.185Z,2.57
2023-04-19T14:44:45.641Z,2.13
2023-04-19T14:47:13.279Z,2.70
2023-04-19T14:49:41.411Z,2.37
2023-04-19T14:52:09.078Z,2.60
2023-04-19T14:54:36.696Z,2.80
2023-04-19T14:57:04.430Z,2.67
2023-04-19T14:59:32.054Z,2.80
2023-04-19T15:02:01.034Z,2.70
2023-04-19T15:04:28.889Z,2.70
2023-04-19T15:06:56.618Z,2.63
2023-04-19T15:09:24.297Z,2.40
2023-04-19T15:11:51.936Z,2.53
2023-04-19T15:14:19.855Z,2.83
2023-04-19T15:16:47.534Z,2.60
2023-04-19T15:19:16.844Z,2.60
2023-04-19T15:21:44.890Z,2.60
2023-04-19T15:24:12.628Z,2.57
2023-04-19T15:26:41.725Z,2.93
2023-04-19T15:29:11.279Z,2.43
2023-04-19T15:31:38.979Z,2.93
2023-04-19T15:34:06.840Z,2.90
2023-04-19T15:36:36.186Z,2.90
2023-04-19T15:39:04.281Z,2.80
2023-04-19T15:41:31.900Z,2.87
2023-04-19T15:43:59.623Z,2.57
2023-04-19T15:46:27.356Z,2.43
2023-04-19T15:48:55.033Z,2.30
2023-04-19T15:51:22.690Z,2.77
2023-04-19T15:53:52.235Z,2.87
2023-04-19T15:56:19.891Z,2.37
2023-04-19T15:58:47.586Z,2.60
2023-04-19T16:01:17.046Z,2.93
2023-04-19T16:03:46.828Z,2.63
2023-04-19T16:06:14.867Z,2.43
2023-04-19T16:08:42.454Z,2.23
2023-04-19T16:11:11.525Z,2.40
2023-04-19T16:13:39.252Z,2.67
2023-04-19T16:16:07.702Z,2.33
2023-04-19T16:18:35.423Z,2.20
2023-04-19T16:21:04.184Z,2.67
2023-04-19T16:23:31.848Z,2.30
2023-04-19T16:25:59.448Z,2.50
2023-04-19T16:28:29.167Z,2.20
2023-04-19T16:30:56.805Z,2.20
2023-04-19T16:33:24.511Z,2.67
2023-04-19T16:35:52.134Z,2.27
2023-04-19T16:38:19.761Z,2.63
2023-04-19T16:40:48.558Z,2.40
2023-04-19T16:43:16.229Z,2.63
2023-04-19T16:45:45.254Z,2.70
2023-04-19T16:48:13.317Z,2.60
2023-04-19T16:50:44.323Z,2.60
2023-04-19T16:53:12.108Z,3.23
2023-04-19T16:55:39.874Z,2.60
2023-04-19T16:58:07.579Z,2.40
2023-04-19T17:00:35.277Z,2.40
2023-04-19T17:03:04.431Z,2.40
2023-04-19T17:05:32.178Z,2.60
2023-04-19T17:07:59.789Z,2.40
2023-04-19T17:10:28.594Z,2.33
2023-04-19T17:12:56.332Z,3.67
2023-04-19T17:15:24.181Z,2.73
2023-04-19T17:17:51.907Z,2.73
2023-04-19T17:20:21.154Z,2.47
2023-04-19T17:22:48.834Z,2.90
2023-04-19T17:25:16.825Z,2.47
2023-04-19T17:27:44.454Z,2.80
2023-04-19T17:30:12.880Z,2.50
2023-04-19T17:32:40.605Z,2.50
2023-04-19T17:35:09.146Z,2.50
2023-04-19T17:37:38.182Z,3.40
2023-04-19T17:40:07.125Z,2.40
2023-04-19T17:42:34.765Z,2.30
2023-04-19T17:45:02.481Z,2.70
2023-04-19T17:47:30.379Z,2.57
2023-04-19T17:50:07.191Z,2.30
2023-04-19T17:52:34.974Z,2.40
2023-04-19T17:55:04.885Z,3.07
2023-04-19T17:57:33.808Z,2.60
2023-04-19T18:00:04.406Z,2.87
2023-04-19T18:02:32.373Z,2.43
2023-04-19T18:05:00.243Z,2.70
2023-04-19T18:07:28.038Z,2.50
2023-04-19T18:09:55.653Z,2.60
2023-04-19T18:12:24.784Z,2.37
2023-04-19T18:14:52.449Z,2.50
2023-04-19T18:17:20.116Z,2.90
2023-04-19T18:19:47.796Z,2.00
2023-04-19T18:22:15.476Z,2.60
2023-04-19T18:24:43.795Z,2.87
2023-04-19T18:27:11.394Z,3.23
2023-04-19T18:29:40.473Z,2.93
2023-04-19T18:32:08.300Z,2.60
2023-04-19T18:34:35.967Z,3.50
2023-04-19T18:37:05.056Z,2.90
2023-04-19T18:39:32.681Z,2.80
2023-04-19T18:42:00.355Z,2.80
2023-04-19T18:44:49.664Z,3.00
2023-04-19T18:47:16.944Z,2.80
2023-04-19T18:49:55.681Z,3.37
2023-04-19T18:52:30.788Z,2.60
2023-04-19T18:54:58.514Z,2.93
2023-04-19T18:57:27.453Z,2.60
2023-04-19T18:59:56.748Z,2.70
2023-04-19T19:02:27.404Z,2.70
2023-04-19T19:04:57.615Z,2.63
2023-04-19T19:07:36.419Z,3.00
2023-04-19T19:10:17.113Z,2.87
2023-04-19T19:12:48.709Z,2.60
2023-04-19T19:15:16.755Z,3.20
2023-04-19T19:17:49.324Z,3.00
2023-04-19T19:20:18.475Z,3.30
2023-04-19T19:22:46.476Z,2.80
2023-04-19T19:25:14.133Z,3.00
2023-04-19T19:27:50.172Z,3.07
2023-04-19T19:30:33.447Z,2.67
2023-04-19T19:33:02.941Z,3.10
2023-04-19T19:35:30.757Z,2.80
2023-04-19T19:37:58.422Z,2.97
2023-04-19T19:40:26.968Z,3.10
2023-04-19T19:42:58.526Z,2.97
2023-04-19T19:45:28.389Z,2.90
2023-04-19T19:47:58.802Z,2.73
2023-04-19T19:52:59.016Z,2.67
2023-04-19T19:55:26.769Z,2.43
2023-04-19T20:00:41.840Z,2.67
2023-04-19T20:03:13.248Z,3.03
2023-04-19T20:05:42.692Z,3.00
2023-04-19T20:08:13.394Z,3.00
2023-04-19T20:10:43.730Z,3.30
2023-04-19T20:13:12.978Z,3.07
2023-04-19T20:15:41.526Z,3.20
2023-04-19T20:18:09.194Z,2.70
2023-04-19T20:20:37.395Z,3.40
2023-04-19T20:23:06.598Z,2.97
2023-04-19T20:25:34.241Z,2.67
2023-04-19T20:28:02.323Z,2.50
2023-04-19T20:30:30.021Z,3.10
2023-04-19T20:32:58.011Z,3.07
2023-04-19T20:35:25.758Z,2.77
2023-04-19T20:37:54.667Z,2.87
2023-04-19T20:40:24.197Z,3.47
2023-04-19T20:42:52.010Z,3.27
2023-04-19T20:45:20.022Z,3.20
2023-04-19T20:47:48.583Z,3.23
2023-04-19T20:50:16.258Z,2.83
2023-04-19T20:52:44.052Z,2.90
2023-04-19T20:55:11.789Z,3.00
2023-04-19T20:57:40.876Z,3.00
2023-04-19T21:00:10.020Z,3.60
2023-04-19T21:02:37.940Z,3.40
2023-04-19T21:05:06.370Z,3.73
2023-04-19T21:07:34.446Z,3.47
2023-04-19T21:10:02.077Z,3.07
2023-04-19T21:12:29.720Z,3.40
2023-04-19T21:14:58.963Z,3.60
2023-04-19T21:17:27.068Z,2.90
2023-04-19T21:19:54.774Z,2.90
2023-04-19T21:22:22.574Z,3.00
2023-04-19T21:24:50.230Z,3.80
2023-04-19T21:27:17.915Z,4.10
2023-04-19T21:29:45.535Z,3.60
2023-04-19T21:32:14.545Z,3.73
2023-04-19T21:34:42.308Z,3.63
2023-04-19T21:37:09.906Z,3.77
2023-04-19T21:39:37.550Z,3.60
2023-04-19T21:42:05.301Z,3.40
2023-04-19T21:44:34.301Z,2.93
2023-04-19T21:47:02.173Z,3.50
2023-04-19T21:49:31.616Z,2.90
2023-04-19T21:51:59.239Z,2.33
2023-04-19T21:54:33.556Z,2.87
2023-04-19T21:57:02.996Z,2.77
2023-04-19T21:59:31.334Z,2.57
2023-04-19T22:01:59.645Z,2.73
2023-04-19T22:04:31.268Z,2.53
2023-04-19T22:07:02.648Z,3.50
2023-04-19T22:09:31.108Z,2.60
2023-04-19T22:12:00.031Z,2.77
2023-04-19T22:14:28.266Z,2.80
2023-04-19T22:16:56.616Z,2.60
2023-04-19T22:19:24.893Z,2.50
2023-04-19T22:21:53.355Z,3.10
2023-04-19T22:24:22.827Z,2.60
2023-04-19T22:26:53.059Z,2.37
2023-04-19T22:29:21.404Z,2.40
2023-04-19T22:31:49.067Z,2.80
2023-04-19T22:34:16.857Z,3.07
2023-04-19T22:36:44.554Z,3.53
2023-04-19T22:39:12.202Z,2.80
2023-04-19T22:41:41.335Z,2.93
2023-04-19T22:44:09.007Z,2.70
2023-04-19T22:46:37.421Z,2.70
2023-04-19T22:49:05.223Z,3.00
2023-04-19T22:51:34.070Z,2.43
2023-04-19T22:54:02.895Z,2.73
2023-04-19T22:56:30.814Z,2.40
2023-04-19T22:58:59.911Z,3.03
2023-04-19T23:01:27.630Z,2.63
2023-04-19T23:03:55.325Z,2.70
2023-04-19T23:06:23.477Z,2.47
2023-04-19T23:08:51.526Z,2.80
2023-04-19T23:11:19.163Z,2.93
2023-04-19T23:13:47.348Z,2.83
2023-04-19T23:16:16.869Z,2.30
2023-04-19T23:18:45.176Z,2.93
2023-04-19T23:21:12.977Z,2.40
2023-04-19T23:23:40.707Z,2.43
2023-04-19T23:26:08.556Z,2.50
2023-04-19T23:28:36.278Z,2.57
2023-04-19T23:31:04.034Z,2.80
2023-04-19T23:33:33.059Z,3.00
2023-04-19T23:36:00.719Z,2.60
2023-04-19T23:38:28.331Z,3.03
2023-04-19T23:40:56.018Z,2.60
2023-04-19T23:43:23.641Z,2.70
2023-04-19T23:45:51.292Z,2.83
2023-04-19T23:48:18.923Z,2.50
2023-04-19T23:51:01.883Z,2.53
2023-04-19T23:53:29.535Z,2.27
2023-04-19T23:55:57.177Z,2.33
2023-04-19T23:58:24.789Z,2.83
